sensor_id;sensor_type;location;lat;lon;timestamp;P1;durP1;ratioP1;P2;durP2;ratioP2
76157;SDS011;64907;51.574;6.502;2023-03-31T00:01:06;7.60;;;2.42;;
76157;SDS011;64907;51.574;6.502;2023-03-31T00:03:31;4.63;;;2.40;;
76157;SDS011;64907;51.574;6.502;2023-03-31T00:05:58;7.25;;;2.38;;
76157;SDS011;64907;51.574;6.502;2023-03-31T00:08:24;6.95;;;2.70;;
76157;SDS011;64907;51.574;6.502;2023-03-31T00:10:49;6.95;;;2.42;;
76157;SDS011;64907;51.574;6.502;2023-03-31T00:13:14;5.30;;;2.35;;
76157;SDS011;64907;51.574;6.502;2023-03-31T00:15:40;6.18;;;2.30;;
76157;SDS011;64907;51.574;6.502;2023-03-31T00:18:05;7.30;;;2.23;;
76157;SDS011;64907;51.574;6.502;2023-03-31T00:20:30;9.32;;;3.08;;
76157;SDS011;64907;51.574;6.502;2023-03-31T00:23:01;7.80;;;2.58;;
76157;SDS011;64907;51.574;6.502;2023-03-31T00:25:27;9.13;;;2.55;;
76157;SDS011;64907;51.574;6.502;2023-03-31T00:27:52;6.07;;;2.37;;
76157;SDS011;64907;51.574;6.502;2023-03-31T00:30:17;13.82;;;3.05;;
76157;SDS011;64907;51.574;6.502;2023-03-31T00:32:42;5.87;;;2.27;;
76157;SDS011;64907;51.574;6.502;2023-03-31T00:35:08;7.18;;;2.17;;
76157;SDS011;64907;51.574;6.502;2023-03-31T00:37:33;9.48;;;2.22;;
76157;SDS011;64907;51.574;6.502;2023-03-31T00:39:58;2.53;;;2.33;;
76157;SDS011;64907;51.574;6.502;2023-03-31T00:42:23;4.87;;;1.60;;
76157;SDS011;64907;51.574;6.502;2023-03-31T00:47:33;8.52;;;2.20;;
76157;SDS011;64907;51.574;6.502;2023-03-31T00:49:58;7.05;;;1.83;;
76157;SDS011;64907;51.574;6.502;2023-03-31T00:52:31;6.43;;;1.88;;
76157;SDS011;64907;51.574;6.502;2023-03-31T00:55:02;7.88;;;2.28;;
76157;SDS011;64907;51.574;6.502;2023-03-31T00:57:28;8.63;;;2.63;;
76157;SDS011;64907;51.574;6.502;2023-03-31T00:59:57;7.90;;;2.10;;
76157;SDS011;64907;51.574;6.502;2023-03-31T01:02:23;4.85;;;1.60;;
76157;SDS011;64907;51.574;6.502;2023-03-31T01:04:53;5.55;;;1.95;;
76157;SDS011;64907;51.574;6.502;2023-03-31T01:09:47;11.10;;;2.40;;
76157;SDS011;64907;51.574;6.502;2023-03-31T01:12:12;5.13;;;2.28;;
76157;SDS011;64907;51.574;6.502;2023-03-31T01:14:38;5.05;;;2.00;;
76157;SDS011;64907;51.574;6.502;2023-03-31T01:17:04;8.00;;;2.58;;
76157;SDS011;64907;51.574;6.502;2023-03-31T01:19:55;11.20;;;2.70;;
76157;SDS011;64907;51.574;6.502;2023-03-31T01:27:42;5.63;;;1.92;;
76157;SDS011;64907;51.574;6.502;2023-03-31T01:35:26;6.20;;;2.40;;
76157;SDS011;64907;51.574;6.502;2023-03-31T01:40:34;6.32;;;2.00;;
76157;SDS011;64907;51.574;6.502;2023-03-31T01:44:05;7.55;;;2.20;;
76157;SDS011;64907;51.574;6.502;2023-03-31T01:45:58;3.90;;;1.77;;
76157;SDS011;64907;51.574;6.502;2023-03-31T01:51:15;8.60;;;2.10;;
76157;SDS011;64907;51.574;6.502;2023-03-31T01:54:00;5.55;;;1.75;;
76157;SDS011;64907;51.574;6.502;2023-03-31T01:59:02;5.32;;;2.08;;
76157;SDS011;64907;51.574;6.502;2023-03-31T02:01:36;5.95;;;1.70;;
76157;SDS011;64907;51.574;6.502;2023-03-31T02:04:09;6.13;;;1.65;;
76157;SDS011;64907;51.574;6.502;2023-03-31T02:06:37;4.10;;;2.45;;
76157;SDS011;64907;51.574;6.502;2023-03-31T02:09:09;3.67;;;1.50;;
76157;SDS011;64907;51.574;6.502;2023-03-31T02:11:35;8.90;;;2.00;;
76157;SDS011;64907;51.574;6.502;2023-03-31T02:14:02;5.70;;;1.80;;
76157;SDS011;64907;51.574;6.502;2023-03-31T02:16:29;5.68;;;2.22;;
76157;SDS011;64907;51.574;6.502;2023-03-31T02:18:57;5.88;;;2.10;;
76157;SDS011;64907;51.574;6.502;2023-03-31T02:21:26;5.63;;;2.05;;
76157;SDS011;64907;51.574;6.502;2023-03-31T02:23:52;4.40;;;2.00;;
76157;SDS011;64907;51.574;6.502;2023-03-31T02:26:22;7.63;;;2.55;;
76157;SDS011;64907;51.574;6.502;2023-03-31T02:28:48;11.23;;;2.58;;
76157;SDS011;64907;51.574;6.502;2023-03-31T02:31:20;4.95;;;2.40;;
76157;SDS011;64907;51.574;6.502;2023-03-31T02:33:47;8.30;;;2.50;;
76157;SDS011;64907;51.574;6.502;2023-03-31T02:36:13;10.02;;;2.78;;
76157;SDS011;64907;51.574;6.502;2023-03-31T02:38:42;9.52;;;2.88;;
76157;SDS011;64907;51.574;6.502;2023-03-31T02:41:08;7.88;;;2.83;;
76157;SDS011;64907;51.574;6.502;2023-03-31T02:43:33;16.30;;;3.03;;
76157;SDS011;64907;51.574;6.502;2023-03-31T02:45:58;14.83;;;3.00;;
76157;SDS011;64907;51.574;6.502;2023-03-31T02:48:25;9.98;;;2.85;;
76157;SDS011;64907;51.574;6.502;2023-03-31T02:56:15;13.40;;;3.35;;
76157;SDS011;64907;51.574;6.502;2023-03-31T02:58:55;18.30;;;3.80;;
76157;SDS011;64907;51.574;6.502;2023-03-31T03:06:41;16.75;;;3.83;;
76157;SDS011;64907;51.574;6.502;2023-03-31T03:19:50;15.85;;;2.90;;
76157;SDS011;64907;51.574;6.502;2023-03-31T03:22:16;10.82;;;3.30;;
76157;SDS011;64907;51.574;6.502;2023-03-31T03:24:41;13.00;;;3.27;;
76157;SDS011;64907;51.574;6.502;2023-03-31T03:27:07;18.55;;;3.15;;
76157;SDS011;64907;51.574;6.502;2023-03-31T03:29:32;13.63;;;3.37;;
76157;SDS011;64907;51.574;6.502;2023-03-31T03:31:57;18.90;;;3.97;;
76157;SDS011;64907;51.574;6.502;2023-03-31T03:34:22;9.68;;;3.00;;
76157;SDS011;64907;51.574;6.502;2023-03-31T03:36:49;13.60;;;2.95;;
76157;SDS011;64907;51.574;6.502;2023-03-31T03:39:15;15.82;;;3.17;;
76157;SDS011;64907;51.574;6.502;2023-03-31T03:41:41;16.00;;;3.40;;
76157;SDS011;64907;51.574;6.502;2023-03-31T03:44:06;12.93;;;3.33;;
76157;SDS011;64907;51.574;6.502;2023-03-31T03:46:31;17.53;;;3.43;;
76157;SDS011;64907;51.574;6.502;2023-03-31T03:48:56;14.00;;;3.60;;
76157;SDS011;64907;51.574;6.502;2023-03-31T03:51:22;13.63;;;3.33;;
76157;SDS011;64907;51.574;6.502;2023-03-31T03:53:47;13.80;;;3.33;;
76157;SDS011;64907;51.574;6.502;2023-03-31T03:56:12;11.15;;;3.42;;
76157;SDS011;64907;51.574;6.502;2023-03-31T03:58:37;12.80;;;2.70;;
76157;SDS011;64907;51.574;6.502;2023-03-31T04:01:03;14.93;;;2.97;;
76157;SDS011;64907;51.574;6.502;2023-03-31T04:03:28;14.23;;;2.95;;
76157;SDS011;64907;51.574;6.502;2023-03-31T04:05:53;12.55;;;3.17;;
76157;SDS011;64907;51.574;6.502;2023-03-31T04:08:18;10.30;;;3.17;;
76157;SDS011;64907;51.574;6.502;2023-03-31T04:10:44;11.00;;;2.70;;
76157;SDS011;64907;51.574;6.502;2023-03-31T04:13:10;10.63;;;2.88;;
76157;SDS011;64907;51.574;6.502;2023-03-31T04:15:35;10.18;;;2.90;;
76157;SDS011;64907;51.574;6.502;2023-03-31T04:18:01;15.85;;;2.90;;
76157;SDS011;64907;51.574;6.502;2023-03-31T04:20:26;12.60;;;3.60;;
76157;SDS011;64907;51.574;6.502;2023-03-31T04:22:51;10.77;;;3.63;;
76157;SDS011;64907;51.574;6.502;2023-03-31T04:25:17;10.65;;;2.58;;
76157;SDS011;64907;51.574;6.502;2023-03-31T04:27:42;9.80;;;2.88;;
76157;SDS011;64907;51.574;6.502;2023-03-31T04:30:11;15.90;;;3.50;;
76157;SDS011;64907;51.574;6.502;2023-03-31T04:32:37;9.65;;;2.88;;
76157;SDS011;64907;51.574;6.502;2023-03-31T04:35:02;17.33;;;3.40;;
76157;SDS011;64907;51.574;6.502;2023-03-31T04:37:30;14.10;;;3.20;;
76157;SDS011;64907;51.574;6.502;2023-03-31T04:40:01;8.00;;;2.50;;
76157;SDS011;64907;51.574;6.502;2023-03-31T04:42:31;12.23;;;2.92;;
76157;SDS011;64907;51.574;6.502;2023-03-31T04:44:57;11.30;;;3.60;;
76157;SDS011;64907;51.574;6.502;2023-03-31T04:47:22;14.53;;;2.60;;
76157;SDS011;64907;51.574;6.502;2023-03-31T04:49:47;11.10;;;2.30;;
76157;SDS011;64907;51.574;6.502;2023-03-31T04:52:12;10.10;;;2.53;;
76157;SDS011;64907;51.574;6.502;2023-03-31T04:54:37;11.02;;;2.38;;
76157;SDS011;64907;51.574;6.502;2023-03-31T04:57:03;8.57;;;2.60;;
76157;SDS011;64907;51.574;6.502;2023-03-31T04:59:28;11.40;;;2.73;;
76157;SDS011;64907;51.574;6.502;2023-03-31T05:01:53;8.90;;;2.13;;
76157;SDS011;64907;51.574;6.502;2023-03-31T05:04:18;10.27;;;2.07;;
76157;SDS011;64907;51.574;6.502;2023-03-31T05:06:43;7.23;;;2.77;;
76157;SDS011;64907;51.574;6.502;2023-03-31T05:09:08;7.68;;;2.95;;
76157;SDS011;64907;51.574;6.502;2023-03-31T05:11:34;5.57;;;1.97;;
76157;SDS011;64907;51.574;6.502;2023-03-31T05:13:59;6.35;;;2.20;;
76157;SDS011;64907;51.574;6.502;2023-03-31T05:16:24;6.03;;;1.90;;
76157;SDS011;64907;51.574;6.502;2023-03-31T05:18:50;7.60;;;1.77;;
76157;SDS011;64907;51.574;6.502;2023-03-31T05:21:16;4.70;;;1.73;;
76157;SDS011;64907;51.574;6.502;2023-03-31T05:23:41;7.45;;;2.20;;
76157;SDS011;64907;51.574;6.502;2023-03-31T05:26:07;4.75;;;1.92;;
76157;SDS011;64907;51.574;6.502;2023-03-31T05:28:33;6.63;;;2.20;;
76157;SDS011;64907;51.574;6.502;2023-03-31T05:31:00;6.82;;;2.00;;
76157;SDS011;64907;51.574;6.502;2023-03-31T05:33:25;10.10;;;2.50;;
76157;SDS011;64907;51.574;6.502;2023-03-31T05:35:51;6.40;;;2.42;;
76157;SDS011;64907;51.574;6.502;2023-03-31T05:38:16;4.77;;;2.33;;
76157;SDS011;64907;51.574;6.502;2023-03-31T05:40:41;6.47;;;1.97;;
76157;SDS011;64907;51.574;6.502;2023-03-31T05:43:06;7.50;;;2.33;;
76157;SDS011;64907;51.574;6.502;2023-03-31T05:45:31;6.47;;;2.00;;
76157;SDS011;64907;51.574;6.502;2023-03-31T05:47:56;5.97;;;2.10;;
76157;SDS011;64907;51.574;6.502;2023-03-31T05:50:22;8.90;;;2.00;;
76157;SDS011;64907;51.574;6.502;2023-03-31T05:52:47;6.85;;;2.50;;
76157;SDS011;64907;51.574;6.502;2023-03-31T05:55:13;5.67;;;2.13;;
76157;SDS011;64907;51.574;6.502;2023-03-31T05:57:38;5.95;;;2.20;;
76157;SDS011;64907;51.574;6.502;2023-03-31T06:00:04;6.57;;;1.83;;
76157;SDS011;64907;51.574;6.502;2023-03-31T06:02:31;6.28;;;2.13;;
76157;SDS011;64907;51.574;6.502;2023-03-31T06:04:56;5.10;;;2.03;;
76157;SDS011;64907;51.574;6.502;2023-03-31T06:07:22;5.03;;;1.83;;
76157;SDS011;64907;51.574;6.502;2023-03-31T06:09:48;6.65;;;1.90;;
76157;SDS011;64907;51.574;6.502;2023-03-31T06:12:14;1.92;;;1.73;;
76157;SDS011;64907;51.574;6.502;2023-03-31T06:14:40;7.68;;;1.80;;
76157;SDS011;64907;51.574;6.502;2023-03-31T06:17:05;6.57;;;2.50;;
76157;SDS011;64907;51.574;6.502;2023-03-31T06:19:30;8.38;;;1.90;;
76157;SDS011;64907;51.574;6.502;2023-03-31T06:21:55;5.22;;;1.80;;
76157;SDS011;64907;51.574;6.502;2023-03-31T06:24:20;4.57;;;1.70;;
76157;SDS011;64907;51.574;6.502;2023-03-31T06:26:45;6.28;;;2.63;;
76157;SDS011;64907;51.574;6.502;2023-03-31T06:29:11;5.87;;;1.80;;
76157;SDS011;64907;51.574;6.502;2023-03-31T06:31:36;5.35;;;1.90;;
76157;SDS011;64907;51.574;6.502;2023-03-31T06:34:01;5.22;;;2.50;;
76157;SDS011;64907;51.574;6.502;2023-03-31T06:36:26;4.75;;;2.10;;
76157;SDS011;64907;51.574;6.502;2023-03-31T06:38:52;4.72;;;1.60;;
76157;SDS011;64907;51.574;6.502;2023-03-31T06:41:17;3.30;;;1.70;;
76157;SDS011;64907;51.574;6.502;2023-03-31T06:43:44;4.32;;;1.65;;
76157;SDS011;64907;51.574;6.502;2023-03-31T06:46:10;2.58;;;1.65;;
76157;SDS011;64907;51.574;6.502;2023-03-31T06:48:35;3.60;;;1.85;;
76157;SDS011;64907;51.574;6.502;2023-03-31T06:51:02;6.80;;;1.80;;
76157;SDS011;64907;51.574;6.502;2023-03-31T06:53:27;8.65;;;2.35;;
76157;SDS011;64907;51.574;6.502;2023-03-31T06:55:53;7.80;;;2.08;;
76157;SDS011;64907;51.574;6.502;2023-03-31T06:58:18;3.03;;;1.73;;
76157;SDS011;64907;51.574;6.502;2023-03-31T07:00:43;4.93;;;1.73;;
76157;SDS011;64907;51.574;6.502;2023-03-31T07:03:11;6.93;;;1.83;;
76157;SDS011;64907;51.574;6.502;2023-03-31T07:05:37;5.90;;;1.67;;
76157;SDS011;64907;51.574;6.502;2023-03-31T07:08:02;6.65;;;2.00;;
76157;SDS011;64907;51.574;6.502;2023-03-31T07:10:28;6.27;;;2.00;;
76157;SDS011;64907;51.574;6.502;2023-03-31T07:12:54;5.13;;;1.73;;
76157;SDS011;64907;51.574;6.502;2023-03-31T07:15:19;4.15;;;1.90;;
76157;SDS011;64907;51.574;6.502;2023-03-31T07:17:45;5.38;;;1.90;;
76157;SDS011;64907;51.574;6.502;2023-03-31T07:20:10;2.88;;;1.58;;
76157;SDS011;64907;51.574;6.502;2023-03-31T07:22:37;7.95;;;2.30;;
76157;SDS011;64907;51.574;6.502;2023-03-31T07:25:02;9.85;;;2.30;;
76157;SDS011;64907;51.574;6.502;2023-03-31T07:27:27;6.30;;;1.70;;
76157;SDS011;64907;51.574;6.502;2023-03-31T07:29:52;5.87;;;1.83;;
76157;SDS011;64907;51.574;6.502;2023-03-31T07:32:17;7.83;;;1.93;;
76157;SDS011;64907;51.574;6.502;2023-03-31T07:34:43;7.17;;;1.80;;
76157;SDS011;64907;51.574;6.502;2023-03-31T07:37:08;7.65;;;2.00;;
76157;SDS011;64907;51.574;6.502;2023-03-31T07:39:34;5.07;;;1.50;;
76157;SDS011;64907;51.574;6.502;2023-03-31T07:41:59;3.63;;;1.80;;
76157;SDS011;64907;51.574;6.502;2023-03-31T07:44:25;3.70;;;1.63;;
76157;SDS011;64907;51.574;6.502;2023-03-31T07:46:50;5.10;;;2.22;;
76157;SDS011;64907;51.574;6.502;2023-03-31T07:49:16;2.40;;;1.63;;
76157;SDS011;64907;51.574;6.502;2023-03-31T07:51:41;5.82;;;1.90;;
76157;SDS011;64907;51.574;6.502;2023-03-31T07:54:06;5.03;;;2.05;;
76157;SDS011;64907;51.574;6.502;2023-03-31T07:56:32;5.43;;;1.80;;
76157;SDS011;64907;51.574;6.502;2023-03-31T07:58:57;9.75;;;2.58;;
76157;SDS011;64907;51.574;6.502;2023-03-31T08:01:22;4.35;;;1.92;;
76157;SDS011;64907;51.574;6.502;2023-03-31T08:03:49;6.05;;;2.08;;
76157;SDS011;64907;51.574;6.502;2023-03-31T08:06:20;5.22;;;2.00;;
76157;SDS011;64907;51.574;6.502;2023-03-31T08:08:47;5.05;;;1.83;;
76157;SDS011;64907;51.574;6.502;2023-03-31T08:11:12;5.90;;;2.38;;
76157;SDS011;64907;51.574;6.502;2023-03-31T08:13:38;6.30;;;2.40;;
76157;SDS011;64907;51.574;6.502;2023-03-31T08:16:03;6.15;;;2.08;;
76157;SDS011;64907;51.574;6.502;2023-03-31T08:18:28;6.78;;;2.10;;
76157;SDS011;64907;51.574;6.502;2023-03-31T08:20:53;4.40;;;2.30;;
76157;SDS011;64907;51.574;6.502;2023-03-31T08:23:19;7.00;;;2.00;;
76157;SDS011;64907;51.574;6.502;2023-03-31T08:25:44;4.73;;;2.10;;
76157;SDS011;64907;51.574;6.502;2023-03-31T08:28:09;5.70;;;2.17;;
76157;SDS011;64907;51.574;6.502;2023-03-31T08:30:41;7.10;;;2.28;;
76157;SDS011;64907;51.574;6.502;2023-03-31T08:33:06;9.02;;;2.42;;
76157;SDS011;64907;51.574;6.502;2023-03-31T08:35:33;10.20;;;2.53;;
76157;SDS011;64907;51.574;6.502;2023-03-31T08:37:58;15.43;;;2.78;;
76157;SDS011;64907;51.574;6.502;2023-03-31T08:40:25;6.63;;;2.42;;
76157;SDS011;64907;51.574;6.502;2023-03-31T08:45:40;9.45;;;2.50;;
76157;SDS011;64907;51.574;6.502;2023-03-31T08:48:10;10.43;;;2.60;;
76157;SDS011;64907;51.574;6.502;2023-03-31T08:50:40;15.00;;;2.85;;
76157;SDS011;64907;51.574;6.502;2023-03-31T08:53:12;9.63;;;2.40;;
76157;SDS011;64907;51.574;6.502;2023-03-31T08:55:51;11.75;;;3.00;;
76157;SDS011;64907;51.574;6.502;2023-03-31T09:06:07;11.48;;;3.53;;
76157;SDS011;64907;51.574;6.502;2023-03-31T09:08:38;11.85;;;2.78;;
76157;SDS011;64907;51.574;6.502;2023-03-31T09:11:07;7.05;;;2.88;;
76157;SDS011;64907;51.574;6.502;2023-03-31T09:18:34;13.93;;;2.95;;
76157;SDS011;64907;51.574;6.502;2023-03-31T09:21:06;8.23;;;2.67;;
76157;SDS011;64907;51.574;6.502;2023-03-31T09:23:34;11.40;;;2.53;;
76157;SDS011;64907;51.574;6.502;2023-03-31T09:26:00;10.02;;;3.08;;
76157;SDS011;64907;51.574;6.502;2023-03-31T09:28:31;9.95;;;3.05;;
76157;SDS011;64907;51.574;6.502;2023-03-31T09:30:59;10.65;;;2.65;;
76157;SDS011;64907;51.574;6.502;2023-03-31T09:33:28;10.88;;;2.55;;
76157;SDS011;64907;51.574;6.502;2023-03-31T09:35:56;10.38;;;3.15;;
76157;SDS011;64907;51.574;6.502;2023-03-31T09:38:22;7.93;;;2.92;;
76157;SDS011;64907;51.574;6.502;2023-03-31T09:40:47;12.63;;;4.07;;
76157;SDS011;64907;51.574;6.502;2023-03-31T09:43:22;10.18;;;3.17;;
76157;SDS011;64907;51.574;6.502;2023-03-31T09:45:48;8.98;;;2.55;;
76157;SDS011;64907;51.574;6.502;2023-03-31T09:48:15;10.27;;;2.75;;
76157;SDS011;64907;51.574;6.502;2023-03-31T09:50:44;11.93;;;2.75;;
76157;SDS011;64907;51.574;6.502;2023-03-31T09:55:43;8.43;;;2.88;;
76157;SDS011;64907;51.574;6.502;2023-03-31T09:58:13;12.80;;;2.97;;
76157;SDS011;64907;51.574;6.502;2023-03-31T10:00:39;15.52;;;3.38;;
76157;SDS011;64907;51.574;6.502;2023-03-31T10:03:05;8.52;;;3.03;;
76157;SDS011;64907;51.574;6.502;2023-03-31T10:05:32;11.93;;;3.08;;
76157;SDS011;64907;51.574;6.502;2023-03-31T10:10:35;8.38;;;2.78;;
76157;SDS011;64907;51.574;6.502;2023-03-31T10:13:00;11.85;;;3.55;;
76157;SDS011;64907;51.574;6.502;2023-03-31T10:15:31;12.50;;;2.72;;
76157;SDS011;64907;51.574;6.502;2023-03-31T10:18:03;12.80;;;3.33;;
76157;SDS011;64907;51.574;6.502;2023-03-31T10:22:58;11.98;;;3.45;;
76157;SDS011;64907;51.574;6.502;2023-03-31T10:25:26;9.65;;;2.80;;
76157;SDS011;64907;51.574;6.502;2023-03-31T10:27:52;13.15;;;3.22;;
76157;SDS011;64907;51.574;6.502;2023-03-31T10:30:22;9.00;;;3.10;;
76157;SDS011;64907;51.574;6.502;2023-03-31T10:32:48;11.15;;;3.03;;
76157;SDS011;64907;51.574;6.502;2023-03-31T10:37:45;12.05;;;2.58;;
76157;SDS011;64907;51.574;6.502;2023-03-31T10:40:13;10.77;;;2.97;;
76157;SDS011;64907;51.574;6.502;2023-03-31T10:42:39;12.90;;;3.45;;
76157;SDS011;64907;51.574;6.502;2023-03-31T10:45:12;15.82;;;3.55;;
76157;SDS011;64907;51.574;6.502;2023-03-31T10:47:38;13.30;;;3.00;;
76157;SDS011;64907;51.574;6.502;2023-03-31T10:50:03;12.48;;;2.80;;
76157;SDS011;64907;51.574;6.502;2023-03-31T10:52:34;9.18;;;2.78;;
76157;SDS011;64907;51.574;6.502;2023-03-31T10:55:10;6.70;;;2.03;;
76157;SDS011;64907;51.574;6.502;2023-03-31T11:02:49;9.30;;;1.80;;
76157;SDS011;64907;51.574;6.502;2023-03-31T11:05:35;10.00;;;2.50;;
76157;SDS011;64907;51.574;6.502;2023-03-31T11:08:08;6.40;;;2.08;;
76157;SDS011;64907;51.574;6.502;2023-03-31T11:10:56;7.90;;;1.60;;
76157;SDS011;64907;51.574;6.502;2023-03-31T11:13:25;6.40;;;2.28;;
76157;SDS011;64907;51.574;6.502;2023-03-31T11:16:10;3.83;;;1.67;;
76157;SDS011;64907;51.574;6.502;2023-03-31T11:31:29;5.97;;;1.90;;
76157;SDS011;64907;51.574;6.502;2023-03-31T11:34:05;7.93;;;2.25;;
76157;SDS011;64907;51.574;6.502;2023-03-31T11:41:47;8.35;;;2.25;;
76157;SDS011;64907;51.574;6.502;2023-03-31T11:44:14;2.70;;;1.60;;
76157;SDS011;64907;51.574;6.502;2023-03-31T11:46:46;7.03;;;1.92;;
76157;SDS011;64907;51.574;6.502;2023-03-31T11:49:17;5.57;;;2.10;;
76157;SDS011;64907;51.574;6.502;2023-03-31T11:54:09;5.93;;;2.13;;
76157;SDS011;64907;51.574;6.502;2023-03-31T11:56:40;4.82;;;2.05;;
76157;SDS011;64907;51.574;6.502;2023-03-31T11:59:05;7.50;;;2.17;;
76157;SDS011;64907;51.574;6.502;2023-03-31T12:07:00;7.15;;;2.63;;
76157;SDS011;64907;51.574;6.502;2023-03-31T12:09:46;10.05;;;2.22;;
76157;SDS011;64907;51.574;6.502;2023-03-31T12:12:16;7.72;;;2.38;;
76157;SDS011;64907;51.574;6.502;2023-03-31T12:14:45;7.30;;;2.22;;
76157;SDS011;64907;51.574;6.502;2023-03-31T12:17:13;6.28;;;2.67;;
76157;SDS011;64907;51.574;6.502;2023-03-31T12:19:48;10.70;;;3.15;;
76157;SDS011;64907;51.574;6.502;2023-03-31T12:22:21;7.45;;;3.05;;
76157;SDS011;64907;51.574;6.502;2023-03-31T12:24:46;10.65;;;2.97;;
76157;SDS011;64907;51.574;6.502;2023-03-31T12:27:13;9.88;;;2.92;;
76157;SDS011;64907;51.574;6.502;2023-03-31T12:32:16;10.45;;;2.78;;
76157;SDS011;64907;51.574;6.502;2023-03-31T12:35:01;10.43;;;2.80;;
76157;SDS011;64907;51.574;6.502;2023-03-31T12:37:46;8.35;;;2.45;;
76157;SDS011;64907;51.574;6.502;2023-03-31T12:40:20;8.55;;;2.50;;
76157;SDS011;64907;51.574;6.502;2023-03-31T12:42:51;6.50;;;2.63;;
76157;SDS011;64907;51.574;6.502;2023-03-31T12:45:28;9.07;;;3.33;;
76157;SDS011;64907;51.574;6.502;2023-03-31T12:48:01;9.73;;;2.40;;
76157;SDS011;64907;51.574;6.502;2023-03-31T12:50:40;11.60;;;3.33;;
76157;SDS011;64907;51.574;6.502;2023-03-31T12:53:13;11.70;;;3.15;;
76157;SDS011;64907;51.574;6.502;2023-03-31T12:55:43;9.63;;;2.33;;
76157;SDS011;64907;51.574;6.502;2023-03-31T13:06:08;9.60;;;2.85;;
76157;SDS011;64907;51.574;6.502;2023-03-31T13:11:14;7.95;;;2.20;;
76157;SDS011;64907;51.574;6.502;2023-03-31T13:13:43;6.93;;;2.28;;
76157;SDS011;64907;51.574;6.502;2023-03-31T13:16:09;9.93;;;2.60;;
76157;SDS011;64907;51.574;6.502;2023-03-31T13:18:34;9.25;;;2.75;;
76157;SDS011;64907;51.574;6.502;2023-03-31T13:21:00;5.18;;;2.70;;
76157;SDS011;64907;51.574;6.502;2023-03-31T13:23:27;9.20;;;2.60;;
76157;SDS011;64907;51.574;6.502;2023-03-31T13:25:54;5.80;;;2.08;;
76157;SDS011;64907;51.574;6.502;2023-03-31T13:30:45;7.45;;;2.22;;
76157;SDS011;64907;51.574;6.502;2023-03-31T13:33:30;4.97;;;2.50;;
76157;SDS011;64907;51.574;6.502;2023-03-31T13:49:38;10.50;;;2.22;;
76157;SDS011;64907;51.574;6.502;2023-03-31T13:52:10;6.68;;;2.70;;
76157;SDS011;64907;51.574;6.502;2023-03-31T14:09:35;8.10;;;3.10;;
76157;SDS011;64907;51.574;6.502;2023-03-31T14:12:17;4.38;;;2.28;;
76157;SDS011;64907;51.574;6.502;2023-03-31T14:14:42;6.10;;;2.40;;
76157;SDS011;64907;51.574;6.502;2023-03-31T14:17:07;5.83;;;2.20;;
76157;SDS011;64907;51.574;6.502;2023-03-31T14:24:49;3.95;;;1.63;;
76157;SDS011;64907;51.574;6.502;2023-03-31T14:37:37;7.05;;;2.10;;
76157;SDS011;64907;51.574;6.502;2023-03-31T14:40:03;9.32;;;2.63;;
76157;SDS011;64907;51.574;6.502;2023-03-31T14:42:31;7.15;;;2.47;;
76157;SDS011;64907;51.574;6.502;2023-03-31T14:45:02;4.03;;;1.42;;
76157;SDS011;64907;51.574;6.502;2023-03-31T14:47:27;8.55;;;2.25;;
76157;SDS011;64907;51.574;6.502;2023-03-31T14:50:00;8.45;;;1.88;;
76157;SDS011;64907;51.574;6.502;2023-03-31T14:52:27;8.02;;;2.78;;
76157;SDS011;64907;51.574;6.502;2023-03-31T14:54:53;7.13;;;2.10;;
76157;SDS011;64907;51.574;6.502;2023-03-31T14:57:18;4.50;;;1.63;;
76157;SDS011;64907;51.574;6.502;2023-03-31T14:59:45;6.47;;;1.85;;
76157;SDS011;64907;51.574;6.502;2023-03-31T15:02:13;3.25;;;1.52;;
76157;SDS011;64907;51.574;6.502;2023-03-31T15:04:40;5.40;;;1.85;;
76157;SDS011;64907;51.574;6.502;2023-03-31T15:07:09;6.07;;;1.63;;
76157;SDS011;64907;51.574;6.502;2023-03-31T15:09:34;5.00;;;1.77;;
76157;SDS011;64907;51.574;6.502;2023-03-31T15:12:03;2.80;;;1.23;;
76157;SDS011;64907;51.574;6.502;2023-03-31T15:14:31;3.83;;;1.10;;
76157;SDS011;64907;51.574;6.502;2023-03-31T15:16:58;3.83;;;1.35;;
76157;SDS011;64907;51.574;6.502;2023-03-31T15:19:26;2.35;;;1.13;;
76157;SDS011;64907;51.574;6.502;2023-03-31T15:21:58;4.00;;;1.65;;
76157;SDS011;64907;51.574;6.502;2023-03-31T15:24:28;2.88;;;1.52;;
76157;SDS011;64907;51.574;6.502;2023-03-31T15:26:56;2.05;;;1.23;;
76157;SDS011;64907;51.574;6.502;2023-03-31T15:31:47;1.60;;;1.03;;
76157;SDS011;64907;51.574;6.502;2023-03-31T15:34:25;2.90;;;1.17;;
76157;SDS011;64907;51.574;6.502;2023-03-31T15:36:55;2.58;;;1.05;;
76157;SDS011;64907;51.574;6.502;2023-03-31T15:39:21;4.47;;;1.42;;
76157;SDS011;64907;51.574;6.502;2023-03-31T15:41:47;2.03;;;1.30;;
76157;SDS011;64907;51.574;6.502;2023-03-31T15:46:58;2.13;;;1.30;;
76157;SDS011;64907;51.574;6.502;2023-03-31T15:49:23;2.47;;;1.38;;
76157;SDS011;64907;51.574;6.502;2023-03-31T15:51:50;6.25;;;1.88;;
76157;SDS011;64907;51.574;6.502;2023-03-31T15:54:27;3.80;;;1.50;;
76157;SDS011;64907;51.574;6.502;2023-03-31T15:56:55;5.30;;;1.70;;
76157;SDS011;64907;51.574;6.502;2023-03-31T15:59:21;3.83;;;1.58;;
76157;SDS011;64907;51.574;6.502;2023-03-31T16:01:47;2.10;;;1.27;;
76157;SDS011;64907;51.574;6.502;2023-03-31T16:04:13;5.00;;;1.30;;
76157;SDS011;64907;51.574;6.502;2023-03-31T16:09:05;5.85;;;1.55;;
76157;SDS011;64907;51.574;6.502;2023-03-31T16:11:33;8.20;;;1.98;;
76157;SDS011;64907;51.574;6.502;2023-03-31T16:13:59;4.78;;;1.63;;
76157;SDS011;64907;51.574;6.502;2023-03-31T16:16:25;5.18;;;1.55;;
76157;SDS011;64907;51.574;6.502;2023-03-31T16:19:00;3.60;;;1.30;;
76157;SDS011;64907;51.574;6.502;2023-03-31T16:21:28;5.80;;;1.80;;
76157;SDS011;64907;51.574;6.502;2023-03-31T16:23:55;4.60;;;1.42;;
76157;SDS011;64907;51.574;6.502;2023-03-31T16:26:21;4.43;;;1.77;;
76157;SDS011;64907;51.574;6.502;2023-03-31T16:28:49;4.65;;;1.55;;
76157;SDS011;64907;51.574;6.502;2023-03-31T16:33:53;3.40;;;1.48;;
76157;SDS011;64907;51.574;6.502;2023-03-31T16:36:19;4.05;;;1.40;;
76157;SDS011;64907;51.574;6.502;2023-03-31T16:38:45;1.50;;;1.40;;
76157;SDS011;64907;51.574;6.502;2023-03-31T16:41:10;2.45;;;1.50;;
76157;SDS011;64907;51.574;6.502;2023-03-31T16:43:38;4.07;;;1.70;;
76157;SDS011;64907;51.574;6.502;2023-03-31T16:46:03;3.63;;;1.30;;
76157;SDS011;64907;51.574;6.502;2023-03-31T16:48:29;2.97;;;1.95;;
76157;SDS011;64907;51.574;6.502;2023-03-31T16:50:56;2.35;;;1.45;;
76157;SDS011;64907;51.574;6.502;2023-03-31T16:53:22;3.60;;;1.73;;
76157;SDS011;64907;51.574;6.502;2023-03-31T16:55:48;4.65;;;1.75;;
76157;SDS011;64907;51.574;6.502;2023-03-31T16:58:14;2.28;;;1.45;;
76157;SDS011;64907;51.574;6.502;2023-03-31T17:00:39;4.65;;;1.50;;
76157;SDS011;64907;51.574;6.502;2023-03-31T17:03:05;2.78;;;1.80;;
76157;SDS011;64907;51.574;6.502;2023-03-31T17:05:31;2.63;;;1.45;;
76157;SDS011;64907;51.574;6.502;2023-03-31T17:08:01;6.50;;;1.90;;
76157;SDS011;64907;51.574;6.502;2023-03-31T17:10:26;3.13;;;1.70;;
76157;SDS011;64907;51.574;6.502;2023-03-31T17:12:52;3.22;;;1.77;;
76157;SDS011;64907;51.574;6.502;2023-03-31T17:15:17;2.47;;;1.87;;
76157;SDS011;64907;51.574;6.502;2023-03-31T17:17:42;1.85;;;1.40;;
76157;SDS011;64907;51.574;6.502;2023-03-31T17:20:08;5.60;;;2.33;;
76157;SDS011;64907;51.574;6.502;2023-03-31T17:22:33;2.22;;;1.30;;
76157;SDS011;64907;51.574;6.502;2023-03-31T17:24:58;2.30;;;1.00;;
76157;SDS011;64907;51.574;6.502;2023-03-31T17:27:24;2.33;;;1.40;;
76157;SDS011;64907;51.574;6.502;2023-03-31T17:29:51;2.60;;;1.27;;
76157;SDS011;64907;51.574;6.502;2023-03-31T17:32:16;2.92;;;1.08;;
76157;SDS011;64907;51.574;6.502;2023-03-31T17:34:42;1.63;;;1.52;;
76157;SDS011;64907;51.574;6.502;2023-03-31T17:37:08;2.55;;;1.58;;
76157;SDS011;64907;51.574;6.502;2023-03-31T17:39:34;4.80;;;1.80;;